sensor_id;sensor_type;location;lat;lon;timestamp;temperature;humidity
34542;DHT22;20784;51.332;12.410;2023-10-08T00:25:35;19.00;99.90
34542;DHT22;20784;51.332;12.410;2023-10-08T00:38:25;18.80;99.90
34542;DHT22;20784;51.332;12.410;2023-10-08T00:44:44;18.70;99.90
34542;DHT22;20784;51.332;12.410;2023-10-08T00:48:01;18.70;99.90
34542;DHT22;20784;51.332;12.410;2023-10-08T00:54:33;18.80;99.90
34542;DHT22;20784;51.332;12.410;2023-10-08T01:04:47;18.80;99.90
34542;DHT22;20784;51.332;12.410;2023-10-08T01:08:27;18.80;99.90
34542;DHT22;20784;51.332;12.410;2023-10-08T01:12:17;18.80;99.90
34542;DHT22;20784;51.332;12.410;2023-10-08T01:15:35;18.70;99.90
34542;DHT22;20784;51.332;12.410;2023-10-08T01:18:06;18.60;99.90
34542;DHT22;20784;51.332;12.410;2023-10-08T01:45:31;17.00;99.90
34542;DHT22;20784;51.332;12.410;2023-10-08T02:20:02;15.30;99.90
34542;DHT22;20784;51.332;12.410;2023-10-08T02:57:04;14.20;99.90
34542;DHT22;20784;51.332;12.410;2023-10-08T03:27:40;13.80;99.90
34542;DHT22;20784;51.332;12.410;2023-10-08T03:37:34;13.60;99.90
34542;DHT22;20784;51.332;12.410;2023-10-08T04:13:49;13.40;99.90
34542;DHT22;20784;51.332;12.410;2023-10-08T05:40:34;13.10;99.90
34542;DHT22;20784;51.332;12.410;2023-10-08T05:51:06;13.10;99.90
34542;DHT22;20784;51.332;12.410;2023-10-08T05:54:22;13.20;99.90
34542;DHT22;20784;51.332;12.410;2023-10-08T05:57:35;13.10;99.90
34542;DHT22;20784;51.332;12.410;2023-10-08T06:40:29;13.00;99.90
34542;DHT22;20784;51.332;12.410;2023-10-08T06:49:55;12.90;99.90
34542;DHT22;20784;51.332;12.410;2023-10-08T06:52:21;12.70;99.90
34542;DHT22;20784;51.332;12.410;2023-10-08T07:02:24;13.00;99.90
34542;DHT22;20784;51.332;12.410;2023-10-08T07:05:39;13.10;99.90
34542;DHT22;20784;51.332;12.410;2023-10-08T07:12:26;12.90;99.90
34542;DHT22;20784;51.332;12.410;2023-10-08T07:15:15;12.90;99.90
34542;DHT22;20784;51.332;12.410;2023-10-08T07:17:57;12.90;99.90
34542;DHT22;20784;51.332;12.410;2023-10-08T07:20:44;12.90;99.90
34542;DHT22;20784;51.332;12.410;2023-10-08T07:23:24;12.90;99.90
34542;DHT22;20784;51.332;12.410;2023-10-08T07:29:39;13.00;99.90
34542;DHT22;20784;51.332;12.410;2023-10-08T07:32:31;12.90;99.90
34542;DHT22;20784;51.332;12.410;2023-10-08T07:38:26;12.80;99.90
34542;DHT22;20784;51.332;12.410;2023-10-08T07:41:14;12.70;99.90
34542;DHT22;20784;51.332;12.410;2023-10-08T07:43:59;12.60;99.90
34542;DHT22;20784;51.332;12.410;2023-10-08T07:47:01;12.60;99.90
34542;DHT22;20784;51.332;12.410;2023-10-08T07:50:22;12.50;99.90
34542;DHT22;20784;51.332;12.410;2023-10-08T07:53:20;12.50;99.90
34542;DHT22;20784;51.332;12.410;2023-10-08T07:59:06;12.60;99.90
34542;DHT22;20784;51.332;12.410;2023-10-08T08:01:54;12.50;99.90
34542;DHT22;20784;51.332;12.410;2023-10-08T08:07:25;12.50;99.90
34542;DHT22;20784;51.332;12.410;2023-10-08T08:10:01;12.40;99.90
34542;DHT22;20784;51.332;12.410;2023-10-08T08:12:42;12.40;99.90
34542;DHT22;20784;51.332;12.410;2023-10-08T08:15:32;12.40;99.90
34542;DHT22;20784;51.332;12.410;2023-10-08T08:21:18;12.40;99.90
34542;DHT22;20784;51.332;12.410;2023-10-08T08:24:06;12.40;99.90
34542;DHT22;20784;51.332;12.410;2023-10-08T08:26:41;12.50;99.90
34542;DHT22;20784;51.332;12.410;2023-10-08T08:45:55;12.70;99.90
34542;DHT22;20784;51.332;12.410;2023-10-08T08:48:34;12.80;99.90
34542;DHT22;20784;51.332;12.410;2023-10-08T08:51:41;12.90;99.90
34542;DHT22;20784;51.332;12.410;2023-10-08T08:54:35;12.90;99.90
34542;DHT22;20784;51.332;12.410;2023-10-08T08:57:07;13.00;99.90
34542;DHT22;20784;51.332;12.410;2023-10-08T09:03:21;13.10;99.90
34542;DHT22;20784;51.332;12.410;2023-10-08T09:09:11;13.30;99.90
34542;DHT22;20784;51.332;12.410;2023-10-08T09:12:11;13.40;99.90
34542;DHT22;20784;51.332;12.410;2023-10-08T09:15:02;13.70;99.90
34542;DHT22;20784;51.332;12.410;2023-10-08T09:17:48;13.90;99.90
34542;DHT22;20784;51.332;12.410;2023-10-08T09:20:39;13.80;99.90
34542;DHT22;20784;51.332;12.410;2023-10-08T09:23:24;14.00;99.90
34542;DHT22;20784;51.332;12.410;2023-10-08T09:26:26;14.10;99.90
34542;DHT22;20784;51.332;12.410;2023-10-08T09:29:04;14.30;99.90
34542;DHT22;20784;51.332;12.410;2023-10-08T09:35:07;14.50;99.90
34542;DHT22;20784;51.332;12.410;2023-10-08T09:37:54;14.60;99.90
34542;DHT22;20784;51.332;12.410;2023-10-08T09:43:13;14.60;99.90
34542;DHT22;20784;51.332;12.410;2023-10-08T09:45:55;14.50;99.90
34542;DHT22;20784;51.332;12.410;2023-10-08T09:48:41;14.60;99.90
34542;DHT22;20784;51.332;12.410;2023-10-08T09:51:22;14.50;99.90
34542;DHT22;20784;51.332;12.410;2023-10-08T09:56:54;14.60;99.90
34542;DHT22;20784;51.332;12.410;2023-10-08T09:59:53;14.60;99.90
34542;DHT22;20784;51.332;12.410;2023-10-08T10:10:32;14.40;99.90
34542;DHT22;20784;51.332;12.410;2023-10-08T10:13:02;14.40;99.90
34542;DHT22;20784;51.332;12.410;2023-10-08T10:32:22;15.50;99.90
34542;DHT22;20784;51.332;12.410;2023-10-08T10:35:26;15.80;99.90
34542;DHT22;20784;51.332;12.410;2023-10-08T10:38:31;15.80;99.90
34542;DHT22;20784;51.332;12.410;2023-10-08T10:48:18;15.80;99.90
34542;DHT22;20784;51.332;12.410;2023-10-08T10:57:28;15.90;99.90
34542;DHT22;20784;51.332;12.410;2023-10-08T11:00:32;15.80;99.90
34542;DHT22;20784;51.332;12.410;2023-10-08T11:07:06;16.00;99.90
34542;DHT22;20784;51.332;12.410;2023-10-08T11:10:21;16.10;99.90
34542;DHT22;20784;51.332;12.410;2023-10-08T11:12:46;16.20;99.90
34542;DHT22;20784;51.332;12.410;2023-10-08T11:15:22;16.20;99.90
34542;DHT22;20784;51.332;12.410;2023-10-08T11:21:52;16.50;99.90
34542;DHT22;20784;51.332;12.410;2023-10-08T11:28:15;17.10;99.90
34542;DHT22;20784;51.332;12.410;2023-10-08T11:34:13;17.60;99.90
34542;DHT22;20784;51.332;12.410;2023-10-08T11:37:15;18.10;99.90
34542;DHT22;20784;51.332;12.410;2023-10-08T11:39:53;18.30;99.90
34542;DHT22;20784;51.332;12.410;2023-10-08T11:48:54;20.10;99.90
34542;DHT22;20784;51.332;12.410;2023-10-08T11:52:02;20.70;99.90
34542;DHT22;20784;51.332;12.410;2023-10-08T11:58:34;21.50;99.90
34542;DHT22;20784;51.332;12.410;2023-10-08T12:01:29;21.50;99.90
34542;DHT22;20784;51.332;12.410;2023-10-08T12:04:16;21.50;99.90
34542;DHT22;20784;51.332;12.410;2023-10-08T12:07:18;21.70;99.90
34542;DHT22;20784;51.332;12.410;2023-10-08T12:10:18;21.60;99.90
34542;DHT22;20784;51.332;12.410;2023-10-08T12:16:33;22.00;99.90
34542;DHT22;20784;51.332;12.410;2023-10-08T12:19:14;22.20;99.90
34542;DHT22;20784;51.332;12.410;2023-10-08T12:22:13;21.80;99.90
34542;DHT22;20784;51.332;12.410;2023-10-08T12:24:51;20.80;99.90
34542;DHT22;20784;51.332;12.410;2023-10-08T12:27:43;20.60;99.90
34542;DHT22;20784;51.332;12.410;2023-10-08T12:30:12;20.10;99.90
34542;DHT22;20784;51.332;12.410;2023-10-08T12:33:03;19.90;99.90
34542;DHT22;20784;51.332;12.410;2023-10-08T12:35:32;19.80;99.90
34542;DHT22;20784;51.332;12.410;2023-10-08T12:37:57;19.80;99.90
34542;DHT22;20784;51.332;12.410;2023-10-08T12:40:31;19.50;99.90
34542;DHT22;20784;51.332;12.410;2023-10-08T12:43:23;19.20;99.90
34542;DHT22;20784;51.332;12.410;2023-10-08T12:46:10;18.80;99.90
34542;DHT22;20784;51.332;12.410;2023-10-08T12:48:53;19.00;99.90
34542;DHT22;20784;51.332;12.410;2023-10-08T12:51:24;18.90;99.90
34542;DHT22;20784;51.332;12.410;2023-10-08T12:54:08;19.10;99.90
34542;DHT22;20784;51.332;12.410;2023-10-08T12:56:50;18.90;99.90
34542;DHT22;20784;51.332;12.410;2023-10-08T12:59:29;18.80;99.90
34542;DHT22;20784;51.332;12.410;2023-10-08T13:02:07;19.10;99.90
34542;DHT22;20784;51.332;12.410;2023-10-08T13:07:52;19.40;99.90
34542;DHT22;20784;51.332;12.410;2023-10-08T13:10:19;19.40;99.90
34542;DHT22;20784;51.332;12.410;2023-10-08T13:12:56;19.40;99.90
34542;DHT22;20784;51.332;12.410;2023-10-08T13:15:28;19.30;99.90
34542;DHT22;20784;51.332;12.410;2023-10-08T13:20:53;18.50;99.90
34542;DHT22;20784;51.332;12.410;2023-10-08T13:23:58;17.60;99.90
34542;DHT22;20784;51.332;12.410;2023-10-08T13:29:51;17.00;99.90
34542;DHT22;20784;51.332;12.410;2023-10-08T13:32:20;16.70;99.90
34542;DHT22;20784;51.332;12.410;2023-10-08T13:35:01;16.80;99.90
34542;DHT22;20784;51.332;12.410;2023-10-08T13:37:55;16.90;99.90
34542;DHT22;20784;51.332;12.410;2023-10-08T13:40:25;17.30;99.90
34542;DHT22;20784;51.332;12.410;2023-10-08T13:43:01;17.50;99.90
34542;DHT22;20784;51.332;12.410;2023-10-08T13:45:27;17.60;99.90
34542;DHT22;20784;51.332;12.410;2023-10-08T13:47:58;17.70;99.90
34542;DHT22;20784;51.332;12.410;2023-10-08T13:50:27;18.00;99.90
34542;DHT22;20784;51.332;12.410;2023-10-08T13:53:12;17.80;99.90
34542;DHT22;20784;51.332;12.410;2023-10-08T13:55:59;17.80;99.90
34542;DHT22;20784;51.332;12.410;2023-10-08T13:58:51;17.70;99.90
34542;DHT22;20784;51.332;12.410;2023-10-08T14:01:32;17.80;99.90
34542;DHT22;20784;51.332;12.410;2023-10-08T14:04:11;17.80;99.90
34542;DHT22;20784;51.332;12.410;2023-10-08T14:06:39;18.10;99.90
34542;DHT22;20784;51.332;12.410;2023-10-08T14:09:15;18.10;99.90
34542;DHT22;20784;51.332;12.410;2023-10-08T14:11:57;17.70;99.90
34542;DHT22;20784;51.332;12.410;2023-10-08T14:14:29;17.70;99.90
34542;DHT22;20784;51.332;12.410;2023-10-08T14:17:05;18.00;99.90
34542;DHT22;20784;51.332;12.410;2023-10-08T14:19:36;17.80;99.90
34542;DHT22;20784;51.332;12.410;2023-10-08T14:22:08;17.20;99.90
34542;DHT22;20784;51.332;12.410;2023-10-08T14:24:41;17.00;99.90
34542;DHT22;20784;51.332;12.410;2023-10-08T14:27:14;16.80;99.90
34542;DHT22;20784;51.332;12.410;2023-10-08T14:29:46;16.60;99.90
34542;DHT22;20784;51.332;12.410;2023-10-08T14:32:17;16.50;99.90
34542;DHT22;20784;51.332;12.410;2023-10-08T14:35:01;16.50;99.90
34542;DHT22;20784;51.332;12.410;2023-10-08T14:37:46;16.40;99.90
34542;DHT22;20784;51.332;12.410;2023-10-08T14:40:36;16.50;99.90
34542;DHT22;20784;51.332;12.410;2023-10-08T14:43:21;16.50;99.90
34542;DHT22;20784;51.332;12.410;2023-10-08T14:45:49;16.60;99.90
34542;DHT22;20784;51.332;12.410;2023-10-08T14:48:22;16.60;99.90
34542;DHT22;20784;51.332;12.410;2023-10-08T14:51:09;16.60;99.90
34542;DHT22;20784;51.332;12.410;2023-10-08T14:53:47;16.60;99.90
34542;DHT22;20784;51.332;12.410;2023-10-08T14:59:58;16.60;99.90
34542;DHT22;20784;51.332;12.410;2023-10-08T15:02:39;16.60;99.90
34542;DHT22;20784;51.332;12.410;2023-10-08T15:08:56;16.50;99.90
34542;DHT22;20784;51.332;12.410;2023-10-08T15:14:23;16.40;99.90
34542;DHT22;20784;51.332;12.410;2023-10-08T15:17:18;16.40;99.90
34542;DHT22;20784;51.332;12.410;2023-10-08T15:20:12;16.40;99.90
34542;DHT22;20784;51.332;12.410;2023-10-08T15:23:10;16.40;99.90
34542;DHT22;20784;51.332;12.410;2023-10-08T15:25:53;16.20;99.90
34542;DHT22;20784;51.332;12.410;2023-10-08T15:28:28;16.10;99.90
34542;DHT22;20784;51.332;12.410;2023-10-08T15:31:04;16.00;99.90
34542;DHT22;20784;51.332;12.410;2023-10-08T15:33:46;15.90;99.90
34542;DHT22;20784;51.332;12.410;2023-10-08T15:36:14;15.90;99.90
34542;DHT22;20784;51.332;12.410;2023-10-08T15:42:59;15.70;99.90
34542;DHT22;20784;51.332;12.410;2023-10-08T15:56:32;15.30;99.90
34542;DHT22;20784;51.332;12.410;2023-10-08T16:02:12;15.30;99.90
34542;DHT22;20784;51.332;12.410;2023-10-08T16:05:29;15.20;99.90
34542;DHT22;20784;51.332;12.410;2023-10-08T16:08:23;15.10;99.90
34542;DHT22;20784;51.332;12.410;2023-10-08T16:11:02;15.10;99.90
34542;DHT22;20784;51.332;12.410;2023-10-08T16:13:43;15.10;99.90
34542;DHT22;20784;51.332;12.410;2023-10-08T16:16:47;15.10;99.90
34542;DHT22;20784;51.332;12.410;2023-10-08T16:26:17;15.00;99.90
34542;DHT22;20784;51.332;12.410;2023-10-08T16:32:34;14.80;99.90
34542;DHT22;20784;51.332;12.410;2023-10-08T16:35:23;14.70;99.90
34542;DHT22;20784;51.332;12.410;2023-10-08T16:38:41;14.60;99.90
34542;DHT22;20784;51.332;12.410;2023-10-08T16:41:23;14.60;99.90
34542;DHT22;20784;51.332;12.410;2023-10-08T16:44:05;14.60;99.90
34542;DHT22;20784;51.332;12.410;2023-10-08T16:46:39;14.60;99.90
34542;DHT22;20784;51.332;12.410;2023-10-08T16:52:29;14.60;99.90
34542;DHT22;20784;51.332;12.410;2023-10-08T16:55:00;14.60;99.90
34542;DHT22;20784;51.332;12.410;2023-10-08T16:57:30;14.70;99.90
34542;DHT22;20784;51.332;12.410;2023-10-08T17:03:28;14.60;99.90
34542;DHT22;20784;51.332;12.410;2023-10-08T17:06:26;14.60;99.90
34542;DHT22;20784;51.332;12.410;2023-10-08T17:08:57;14.60;99.90
34542;DHT22;20784;51.332;12.410;2023-10-08T17:11:23;14.60;99.90
34542;DHT22;20784;51.332;12.410;2023-10-08T17:13:54;14.60;99.90
34542;DHT22;20784;51.332;12.410;2023-10-08T17:16:38;14.50;99.90
34542;DHT22;20784;51.332;12.410;2023-10-08T17:19:13;14.50;99.90
34542;DHT22;20784;51.332;12.410;2023-10-08T17:21:43;14.60;99.90
34542;DHT22;20784;51.332;12.410;2023-10-08T17:24:09;14.50;99.90
34542;DHT22;20784;51.332;12.410;2023-10-08T17:26:35;14.50;99.90
34542;DHT22;20784;51.332;12.410;2023-10-08T17:29:06;14.50;99.90
34542;DHT22;20784;51.332;12.410;2023-10-08T17:31:35;14.50;99.90
34542;DHT22;20784;51.332;12.410;2023-10-08T17:34:20;14.50;99.90
34542;DHT22;20784;51.332;12.410;2023-10-08T17:36:49;14.40;99.90
34542;DHT22;20784;51.332;12.410;2023-10-08T17:39:18;14.40;99.90
34542;DHT22;20784;51.332;12.410;2023-10-08T17:41:44;14.40;99.90
34542;DHT22;20784;51.332;12.410;2023-10-08T17:44:22;14.40;99.90
34542;DHT22;20784;51.332;12.410;2023-10-08T17:46:56;14.40;99.90
34542;DHT22;20784;51.332;12.410;2023-10-08T17:52:23;14.40;99.90
34542;DHT22;20784;51.332;12.410;2023-10-08T17:55:12;14.40;99.90
34542;DHT22;20784;51.332;12.410;2023-10-08T18:01:41;14.30;99.90
34542;DHT22;20784;51.332;12.410;2023-10-08T20:16:04;13.70;99.90
34542;DHT22;20784;51.332;12.410;2023-10-08T20:18:58;13.70;99.90
34542;DHT22;20784;51.332;12.410;2023-10-08T20:24:45;13.70;99.90
34542;DHT22;20784;51.332;12.410;2023-10-08T21:05:36;13.50;99.90
34542;DHT22;20784;51.332;12.410;2023-10-08T21:19:49;13.40;99.90
34542;DHT22;20784;51.332;12.410;2023-10-08T22:18:09;13.30;99.90
34542;DHT22;20784;51.332;12.410;2023-10-08T22:35:06;13.20;99.90
34542;DHT22;20784;51.332;12.410;2023-10-08T22:48:38;12.90;99.90
34542;DHT22;20784;51.332;12.410;2023-10-08T23:43:11;12.80;99.90
34542;DHT22;20784;51.332;12.410;2023-10-08T23:46:53;12.80;99.90
34542;DHT22;20784;51.332;12.410;2023-10-08T23:53:09;12.80;99.90
